| time (UTC) | temp F | wind direction | speed knots | gust knots | rain 1hr in | rain 24hr in | rain mn in | humidity % | barometer mb |
| 20260507134542 | 56 | 277 | 5.2 | 12.2 | 0.00 | 0.00 | 0.00 | 44 | 1017.9 |
| 20260507133056 | 56 | 278 | 5.2 | 13.0 | 0.00 | 0.00 | 0.00 | 46 | 1017.9 |
| 20260507131549 | 57 | 272 | 6.1 | 12.2 | 0.00 | 0.00 | 0.00 | 44 | 1017.8 |
| 20260507130054 | 57 | 259 | 5.2 | 13.9 | 0.00 | 0.00 | 0.00 | 42 | 1017.8 |
| 20260507124537 | 58 | 271 | 5.2 | 10.4 | 0.00 | 0.00 | 0.00 | 41 | 1017.7 |
| 20260507123043 | 58 | 0 | 3.5 | 10.4 | 0.00 | 0.00 | 0.00 | 41 | 1017.6 |
| 20260507121540 | 58 | 286 | 7.0 | 13.9 | 0.00 | 0.00 | 0.00 | 41 | 1017.7 |
| 20260507120052 | 59 | 232 | 4.3 | 11.3 | 0.00 | 0.00 | 0.00 | 41 | 1017.7 |
| 20260507114612 | 59 | 0 | 0.9 | 12.2 | 0.00 | 0.00 | 0.00 | 41 | 1017.6 |
| 20260507113038 | 59 | 0 | 6.1 | 12.2 | 0.00 | 0.00 | 0.00 | 40 | 1017.6 |
| 20260507111537 | 59 | 0 | 4.3 | 11.3 | 0.00 | 0.00 | 0.00 | 39 | 1017.8 |
| 20260507110043 | 58 | 294 | 1.7 | 11.3 | 0.00 | 0.00 | 0.00 | 39 | 1017.7 |
| 20260507104541 | 57 | 0 | 0.0 | 7.8 | 0.00 | 0.00 | 0.00 | 35 | 1017.6 |
| 20260507103040 | 59 | 0 | 0.9 | 5.2 | 0.00 | 0.00 | 0.00 | 36 | 1017.8 |
| 20260507101543 | 57 | 247 | 0.9 | 7.0 | 0.00 | 0.00 | 0.00 | 39 | 1017.6 |
| 20260507100039 | 58 | 0 | 0.0 | 6.1 | 0.00 | 0.00 | 0.00 | 37 | 1017.6 |
| 20260507094536 | 57 | 0 | 0.9 | 7.8 | 0.00 | 0.00 | 0.00 | 40 | 1017.8 |
| 20260507093047 | 56 | 261 | 0.0 | 7.8 | 0.00 | 0.00 | 0.00 | 42 | 1017.9 |
| 20260507091546 | 54 | 0 | 0.9 | 7.8 | 0.00 | 0.00 | 0.00 | 43 | 1017.6 |
| 20260507090041 | 56 | 0 | 0.0 | 8.7 | 0.00 | 0.00 | 0.00 | 42 | 1017.8 |
| 20260507084548 | 56 | 265 | 4.3 | 10.4 | 0.00 | 0.00 | 0.00 | 44 | 1017.6 |
| 20260507083044 | 55 | 280 | 0.9 | 8.7 | 0.00 | 0.00 | 0.00 | 46 | 1017.7 |
| 20260507081540 | 54 | 284 | 3.5 | 9.6 | 0.00 | 0.00 | 0.00 | 49 | 1017.6 |
| 20260507080044 | 53 | 271 | 0.0 | 9.6 | 0.00 | 0.00 | 0.00 | 52 | 1017.5 |
| 20260507074542 | 50 | 269 | 1.7 | 7.0 | 0.00 | 0.00 | 0.00 | 56 | 1017.5 |
| 20260507073036 | 48 | 0 | 0.0 | 3.5 | 0.00 | 0.00 | 0.00 | 63 | 1017.5 |
| 20260507071535 | 46 | 0 | 0.0 | 1.7 | 0.00 | 0.00 | 0.00 | 69 | 1017.4 |
| 20260507070042 | 44 | 0 | 0.0 | 1.7 | 0.00 | 0.00 | 0.00 | 73 | 1017.6 |
| 20260507064540 | 42 | 0 | 0.0 | 0.0 | 0.00 | 0.00 | 0.00 | 78 | 1017.4 |
| 20260507063038 | 42 | 0 | 0.0 | 0.0 | 0.00 | 0.00 | 0.00 | 78 | 1017.3 |
| 20260507061538 | 40 | 0 | 0.0 | 0.0 | 0.00 | 0.00 | 0.00 | 82 | 1017.3 |
| 20260507060036 | 39 | 0 | 0.0 | 0.0 | 0.00 | 0.00 | 0.00 | 84 | 1017.2 |
| 20260507054539 | 38 | 0 | 0.0 | 0.0 | 0.00 | 0.00 | 0.00 | 86 | 1017.3 |
| 20260507053040 | 37 | 0 | 0.0 | 0.0 | 0.00 | 0.00 | 0.00 | 89 | 1017.2 |
| 20260507051541 | 36 | 0 | 0.0 | 0.0 | 0.00 | 0.00 | 0.00 | 90 | 1017.2 |
| 20260507050038 | 35 | 0 | 0.0 | 0.0 | 0.00 | 0.00 | 0.00 | 90 | 1017.1 |
| 20260507044538 | 34 | 0 | 0.0 | 0.0 | 0.00 | 0.00 | 0.00 | 91 | 1017.0 |
| 20260507043044 | 33 | 0 | 0.0 | 0.0 | 0.00 | 0.00 | 0.00 | 92 | 1016.9 |
| 20260507041543 | 32 | 0 | 0.0 | 0.0 | 0.00 | 0.00 | 0.00 | 92 | 1016.7 |
| 20260507040043 | 32 | 0 | 0.0 | 0.0 | 0.00 | 0.00 | 0.00 | 91 | 1016.9 |
| 20260507034539 | 32 | 0 | 0.0 | 0.0 | 0.00 | 0.00 | 0.00 | 90 | 1016.7 |
| 20260507033038 | 32 | 0 | 0.0 | 0.0 | 0.00 | 0.00 | 0.00 | 90 | 1016.6 |
| 20260507031537 | 33 | 0 | 0.0 | 0.0 | 0.00 | 0.00 | 0.00 | 89 | 1016.7 |
| 20260507030044 | 33 | 0 | 0.0 | 0.0 | 0.00 | 0.00 | 0.00 | 89 | 1016.6 |
| 20260507024542 | 34 | 0 | 0.0 | 0.0 | 0.00 | 0.00 | 0.00 | 88 | 1016.5 |
| 20260507023046 | 34 | 0 | 0.0 | 0.0 | 0.00 | 0.00 | 0.00 | 89 | 1016.4 |
| 20260507021544 | 35 | 0 | 0.0 | 0.0 | 0.00 | 0.00 | 0.00 | 88 | 1016.3 |
| 20260507020059 | 35 | 0 | 0.0 | 0.0 | 0.00 | 0.00 | 0.00 | 89 | 1016.3 |
| 20260507014537 | 34 | 0 | 0.0 | 0.0 | 0.00 | 0.00 | 0.00 | 89 | 1016.3 |
| 20260507013051 | 34 | 0 | 0.0 | 0.0 | 0.00 | 0.00 | 0.00 | 86 | 1016.3 |
| 20260507011542 | 36 | 0 | 0.0 | 0.0 | 0.00 | 0.00 | 0.00 | 87 | 1016.3 |
| 20260507010042 | 36 | 0 | 0.0 | 0.0 | 0.00 | 0.00 | 0.00 | 87 | 1016.2 |
| 20260507004551 | 36 | 0 | 0.0 | 0.0 | 0.00 | 0.00 | 0.00 | 86 | 1016.3 |
| 20260507003050 | 36 | 0 | 0.0 | 0.0 | 0.00 | 0.00 | 0.00 | 85 | 1016.3 |
| 20260507001546 | 37 | 0 | 0.0 | 0.0 | 0.00 | 0.00 | 0.00 | 82 | 1016.2 |
| 20260507000041 | 37 | 0 | 0.0 | 0.0 | 0.00 | 0.00 | 0.00 | 82 | 1016.2 |
| 20260506234544 | 37 | 0 | 0.0 | 0.0 | 0.00 | 0.00 | 0.00 | 83 | 1016.2 |
| 20260506233044 | 37 | 0 | 0.0 | 0.0 | 0.00 | 0.00 | 0.00 | 81 | 1016.1 |
| 20260506231539 | 38 | 0 | 0.0 | 0.0 | 0.00 | 0.00 | 0.00 | 81 | 1016.3 |
| 20260506230045 | 38 | 0 | 0.0 | 0.0 | 0.00 | 0.00 | 0.00 | 79 | 1016.2 |
| 20260506224543 | 39 | 0 | 0.0 | 0.0 | 0.00 | 0.00 | 0.00 | 78 | 1015.9 |
| 20260506223045 | 39 | 0 | 0.0 | 6.1 | 0.00 | 0.00 | 0.00 | 78 | 1015.9 |
| 20260506221539 | 39 | 0 | 0.0 | 1.7 | 0.00 | 0.00 | 0.00 | 77 | 1015.7 |
| 20260506220039 | 39 | 0 | 0.0 | 2.6 | 0.00 | 0.00 | 0.00 | 76 | 1015.8 |
| 20260506214541 | 40 | 0 | 0.0 | 1.7 | 0.00 | 0.00 | 0.00 | 75 | 1015.7 |
| 20260506213058 | 40 | 0 | 0.0 | 3.5 | 0.00 | 0.00 | 0.00 | 75 | 1015.7 |
| 20260506211546 | 40 | 0 | 0.0 | 0.9 | 0.00 | 0.00 | 0.00 | 73 | 1015.8 |
| 20260506210041 | 40 | 0 | 0.0 | 3.5 | 0.00 | 0.00 | 0.00 | 72 | 1015.6 |
| 20260506204538 | 41 | 0 | 0.0 | 5.2 | 0.00 | 0.00 | 0.00 | 70 | 1015.7 |
| 20260506203038 | 41 | 0 | 0.0 | 4.3 | 0.00 | 0.00 | 0.00 | 69 | 1015.6 |
| 20260506201536 | 41 | 0 | 0.9 | 9.6 | 0.00 | 0.00 | 0.00 | 67 | 1015.6 |
| 20260506200043 | 42 | 0 | 0.9 | 7.8 | 0.00 | 0.00 | 0.00 | 66 | 1015.5 |
| 20260506194539 | 42 | 0 | 3.5 | 8.7 | 0.00 | 0.00 | 0.00 | 64 | 1015.5 |
| 20260506193039 | 43 | 269 | 3.5 | 13.0 | 0.00 | 0.00 | 0.00 | 62 | 1015.5 |
| 20260506191541 | 43 | 276 | 2.6 | 9.6 | 0.00 | 0.00 | 0.00 | 62 | 1015.4 |
| 20260506190037 | 44 | 276 | 3.5 | 14.8 | 0.00 | 0.00 | 0.00 | 62 | 1015.3 |
| 20260506184551 | 45 | 285 | 4.3 | 12.2 | 0.00 | 0.00 | 0.00 | 61 | 1015.1 |
| 20260506183053 | 45 | 0 | 4.3 | 13.0 | 0.00 | 0.00 | 0.00 | 63 | 1015.3 |
| 20260506181608 | 45 | 315 | 3.5 | 16.5 | 0.00 | 0.00 | 0.00 | 61 | 1015.1 |
| 20260506180042 | 46 | 267 | 6.1 | 16.5 | 0.00 | 0.00 | 0.00 | 61 | 1015.1 |
| 20260506174541 | 47 | 0 | 2.6 | 14.8 | 0.00 | 0.00 | 0.00 | 60 | 1015.1 |
| 20260506173056 | 47 | 250 | 5.2 | 19.1 | 0.00 | 0.00 | 0.00 | 60 | 1015.1 |
| 20260506171543 | 47 | 267 | 7.0 | 20.0 | 0.00 | 0.00 | 0.00 | 58 | 1015.0 |
| 20260506170042 | 48 | 284 | 7.8 | 17.4 | 0.00 | 0.00 | 0.00 | 58 | 1015.0 |
| 20260506164543 | 48 | 228 | 7.0 | 17.4 | 0.00 | 0.00 | 0.00 | 58 | 1014.9 |
| 20260506163040 | 48 | 275 | 9.6 | 20.0 | 0.00 | 0.00 | 0.00 | 57 | 1014.9 |
| 20260506161538 | 49 | 292 | 7.8 | 17.4 | 0.00 | 0.00 | 0.00 | 56 | 1014.9 |
| 20260506160037 | 50 | 291 | 7.8 | 19.1 | 0.00 | 0.00 | 0.00 | 53 | 1014.6 |
| 20260506154544 | 50 | 277 | 9.6 | 20.0 | 0.00 | 0.00 | 0.00 | 53 | 1014.9 |
| 20260506153059 | 50 | 266 | 11.3 | 19.1 | 0.00 | 0.00 | 0.00 | 51 | 1014.8 |
| 20260506151544 | 51 | 203 | 10.4 | 17.4 | 0.00 | 0.00 | 0.00 | 51 | 1014.9 |
| 20260506150046 | 52 | 277 | 8.7 | 16.5 | 0.00 | 0.00 | 0.00 | 54 | 1014.9 |
| 20260506144538 | 51 | 278 | 9.6 | 17.4 | 0.00 | 0.00 | 0.00 | 57 | 1015.0 |
| 20260506143040 | 52 | 281 | 7.0 | 17.4 | 0.00 | 0.00 | 0.00 | 55 | 1015.3 |
| 20260506141537 | 51 | 282 | 8.7 | 16.5 | 0.00 | 0.00 | 0.00 | 55 | 1015.2 |
| 20260506140039 | 51 | 0 | 6.1 | 19.1 | 0.00 | 0.00 | 0.00 | 57 | 1015.0 |